sensor_id;sensor_type;location;lat;lon;timestamp;temperature;humidity
49503;DHT22;35409;48.776;9.204;2023-06-14T00:47:43;15.00;76.30
49503;DHT22;35409;48.776;9.204;2023-06-14T00:50:09;14.80;77.20
49503;DHT22;35409;48.776;9.204;2023-06-14T00:52:36;14.70;76.80
49503;DHT22;35409;48.776;9.204;2023-06-14T00:55:02;14.70;77.20
49503;DHT22;35409;48.776;9.204;2023-06-14T00:57:28;14.60;76.90
49503;DHT22;35409;48.776;9.204;2023-06-14T00:59:55;14.60;76.80
49503;DHT22;35409;48.776;9.204;2023-06-14T01:02:21;14.50;77.10
49503;DHT22;35409;48.776;9.204;2023-06-14T01:44:27;13.80;99.90
49503;DHT22;35409;48.776;9.204;2023-06-14T01:46:54;13.80;95.60
49503;DHT22;35409;48.776;9.204;2023-06-14T01:49:20;13.70;81.00
49503;DHT22;35409;48.776;9.204;2023-06-14T01:51:46;13.60;80.50
49503;DHT22;35409;48.776;9.204;2023-06-14T01:54:11;13.60;80.70
49503;DHT22;35409;48.776;9.204;2023-06-14T01:56:37;13.50;81.20
49503;DHT22;35409;48.776;9.204;2023-06-14T01:59:02;13.50;81.40
49503;DHT22;35409;48.776;9.204;2023-06-14T02:01:28;13.40;81.20
49503;DHT22;35409;48.776;9.204;2023-06-14T02:03:53;13.40;81.30
49503;DHT22;35409;48.776;9.204;2023-06-14T02:06:19;13.40;81.50
49503;DHT22;35409;48.776;9.204;2023-06-14T02:08:45;13.40;81.50
49503;DHT22;35409;48.776;9.204;2023-06-14T02:11:10;13.40;81.50
49503;DHT22;35409;48.776;9.204;2023-06-14T02:13:36;13.40;81.90
49503;DHT22;35409;48.776;9.204;2023-06-14T02:16:01;13.40;81.80
49503;DHT22;35409;48.776;9.204;2023-06-14T02:18:27;13.40;81.80
49503;DHT22;35409;48.776;9.204;2023-06-14T02:20:53;13.40;81.90
49503;DHT22;35409;48.776;9.204;2023-06-14T02:23:18;13.40;82.30
49503;DHT22;35409;48.776;9.204;2023-06-14T02:25:44;13.40;99.20
49503;DHT22;35409;48.776;9.204;2023-06-14T02:28:11;13.40;99.80
49503;DHT22;35409;48.776;9.204;2023-06-14T02:30:37;13.30;99.90
49503;DHT22;35409;48.776;9.204;2023-06-14T02:37:56;13.20;83.00
49503;DHT22;35409;48.776;9.204;2023-06-14T02:40:22;13.20;83.50
49503;DHT22;35409;48.776;9.204;2023-06-14T02:42:48;13.10;83.90
49503;DHT22;35409;48.776;9.204;2023-06-14T02:45:13;13.00;84.40
49503;DHT22;35409;48.776;9.204;2023-06-14T02:47:39;12.90;84.70
49503;DHT22;35409;48.776;9.204;2023-06-14T02:50:05;12.90;85.10
49503;DHT22;35409;48.776;9.204;2023-06-14T02:52:31;12.80;85.30
49503;DHT22;35409;48.776;9.204;2023-06-14T02:54:58;12.80;85.50
49503;DHT22;35409;48.776;9.204;2023-06-14T02:57:24;12.80;86.00
49503;DHT22;35409;48.776;9.204;2023-06-14T02:59:50;12.80;86.30
49503;DHT22;35409;48.776;9.204;2023-06-14T03:02:15;12.80;86.60
49503;DHT22;35409;48.776;9.204;2023-06-14T03:04:41;12.70;86.60
49503;DHT22;35409;48.776;9.204;2023-06-14T03:07:08;12.70;86.80
49503;DHT22;35409;48.776;9.204;2023-06-14T03:09:38;12.60;87.00
49503;DHT22;35409;48.776;9.204;2023-06-14T03:12:05;12.60;87.50
49503;DHT22;35409;48.776;9.204;2023-06-14T03:14:32;12.50;88.00
49503;DHT22;35409;48.776;9.204;2023-06-14T03:16:58;12.50;88.40
49503;DHT22;35409;48.776;9.204;2023-06-14T03:19:24;12.50;88.70
49503;DHT22;35409;48.776;9.204;2023-06-14T03:21:51;12.50;89.10
49503;DHT22;35409;48.776;9.204;2023-06-14T03:24:17;12.50;89.10
49503;DHT22;35409;48.776;9.204;2023-06-14T03:26:43;12.50;89.40
49503;DHT22;35409;48.776;9.204;2023-06-14T03:29:09;12.50;89.30
49503;DHT22;35409;48.776;9.204;2023-06-14T03:31:35;12.50;90.00
49503;DHT22;35409;48.776;9.204;2023-06-14T03:34:03;12.50;89.50
49503;DHT22;35409;48.776;9.204;2023-06-14T03:36:29;12.50;89.20
49503;DHT22;35409;48.776;9.204;2023-06-14T03:38:54;12.60;89.30
49503;DHT22;35409;48.776;9.204;2023-06-14T03:41:20;12.60;89.80
49503;DHT22;35409;48.776;9.204;2023-06-14T03:43:46;12.60;90.30
49503;DHT22;35409;48.776;9.204;2023-06-14T03:46:11;12.50;90.20
49503;DHT22;35409;48.776;9.204;2023-06-14T03:48:37;12.50;90.20
49503;DHT22;35409;48.776;9.204;2023-06-14T03:51:04;12.50;90.40
49503;DHT22;35409;48.776;9.204;2023-06-14T03:53:30;12.50;90.60
49503;DHT22;35409;48.776;9.204;2023-06-14T03:55:56;12.50;90.70
49503;DHT22;35409;48.776;9.204;2023-06-14T03:58:22;12.60;90.80
49503;DHT22;35409;48.776;9.204;2023-06-14T04:00:48;12.60;90.90
49503;DHT22;35409;48.776;9.204;2023-06-14T04:03:14;12.60;90.90
49503;DHT22;35409;48.776;9.204;2023-06-14T04:05:41;12.70;90.90
49503;DHT22;35409;48.776;9.204;2023-06-14T04:08:09;12.70;90.80
49503;DHT22;35409;48.776;9.204;2023-06-14T04:10:35;12.70;90.70
49503;DHT22;35409;48.776;9.204;2023-06-14T04:13:01;12.80;90.80
49503;DHT22;35409;48.776;9.204;2023-06-14T04:15:26;12.80;91.00
49503;DHT22;35409;48.776;9.204;2023-06-14T04:17:53;12.90;90.80
49503;DHT22;35409;48.776;9.204;2023-06-14T04:20:22;12.90;90.90
49503;DHT22;35409;48.776;9.204;2023-06-14T04:22:49;13.00;90.80
49503;DHT22;35409;48.776;9.204;2023-06-14T04:25:15;13.10;90.80
49503;DHT22;35409;48.776;9.204;2023-06-14T04:27:41;13.10;90.60
49503;DHT22;35409;48.776;9.204;2023-06-14T04:30:07;13.20;90.60
49503;DHT22;35409;48.776;9.204;2023-06-14T04:32:33;13.30;90.60
49503;DHT22;35409;48.776;9.204;2023-06-14T04:35:00;13.40;90.60
49503;DHT22;35409;48.776;9.204;2023-06-14T04:37:29;13.50;90.50
49503;DHT22;35409;48.776;9.204;2023-06-14T04:39:55;13.60;90.40
49503;DHT22;35409;48.776;9.204;2023-06-14T04:42:22;13.70;90.40
49503;DHT22;35409;48.776;9.204;2023-06-14T04:44:51;13.70;90.10
49503;DHT22;35409;48.776;9.204;2023-06-14T04:47:17;13.90;89.90
49503;DHT22;35409;48.776;9.204;2023-06-14T04:49:43;14.00;90.10
49503;DHT22;35409;48.776;9.204;2023-06-14T04:52:08;14.10;89.60
49503;DHT22;35409;48.776;9.204;2023-06-14T04:54:39;14.20;89.90
49503;DHT22;35409;48.776;9.204;2023-06-14T04:57:07;14.30;89.50
49503;DHT22;35409;48.776;9.204;2023-06-14T04:59:32;14.50;88.90
49503;DHT22;35409;48.776;9.204;2023-06-14T05:02:01;14.60;87.40
49503;DHT22;35409;48.776;9.204;2023-06-14T05:04:27;14.80;86.80
49503;DHT22;35409;48.776;9.204;2023-06-14T05:06:53;15.00;87.30
49503;DHT22;35409;48.776;9.204;2023-06-14T05:09:20;15.10;87.30
49503;DHT22;35409;48.776;9.204;2023-06-14T05:11:46;15.20;87.10
49503;DHT22;35409;48.776;9.204;2023-06-14T05:14:13;15.30;86.40
49503;DHT22;35409;48.776;9.204;2023-06-14T05:16:39;15.30;86.00
49503;DHT22;35409;48.776;9.204;2023-06-14T05:19:05;15.40;85.60
49503;DHT22;35409;48.776;9.204;2023-06-14T05:21:31;15.40;84.70
49503;DHT22;35409;48.776;9.204;2023-06-14T05:23:59;15.50;84.60
49503;DHT22;35409;48.776;9.204;2023-06-14T05:26:24;15.60;84.60
49503;DHT22;35409;48.776;9.204;2023-06-14T05:28:57;15.70;83.80
49503;DHT22;35409;48.776;9.204;2023-06-14T05:31:25;15.80;83.40
49503;DHT22;35409;48.776;9.204;2023-06-14T05:33:52;15.90;83.00
49503;DHT22;35409;48.776;9.204;2023-06-14T05:36:18;15.90;83.30
49503;DHT22;35409;48.776;9.204;2023-06-14T05:38:45;16.10;83.10
49503;DHT22;35409;48.776;9.204;2023-06-14T05:41:10;16.10;82.90
49503;DHT22;35409;48.776;9.204;2023-06-14T05:43:36;16.20;82.60
49503;DHT22;35409;48.776;9.204;2023-06-14T05:46:02;16.30;82.80
49503;DHT22;35409;48.776;9.204;2023-06-14T05:48:28;16.50;82.10
49503;DHT22;35409;48.776;9.204;2023-06-14T05:50:54;16.60;80.90
49503;DHT22;35409;48.776;9.204;2023-06-14T05:53:19;16.70;80.50
49503;DHT22;35409;48.776;9.204;2023-06-14T05:55:45;16.80;80.30
49503;DHT22;35409;48.776;9.204;2023-06-14T05:58:10;16.90;80.20
49503;DHT22;35409;48.776;9.204;2023-06-14T06:00:36;17.00;80.00
49503;DHT22;35409;48.776;9.204;2023-06-14T06:03:02;17.10;79.40
49503;DHT22;35409;48.776;9.204;2023-06-14T06:05:27;17.20;78.80
49503;DHT22;35409;48.776;9.204;2023-06-14T06:07:53;17.30;77.30
49503;DHT22;35409;48.776;9.204;2023-06-14T06:10:18;17.40;77.30
49503;DHT22;35409;48.776;9.204;2023-06-14T06:12:44;17.50;77.70
49503;DHT22;35409;48.776;9.204;2023-06-14T06:15:10;17.60;77.90
49503;DHT22;35409;48.776;9.204;2023-06-14T06:17:39;17.60;77.40
49503;DHT22;35409;48.776;9.204;2023-06-14T06:20:05;17.80;77.10
49503;DHT22;35409;48.776;9.204;2023-06-14T06:22:33;17.90;77.00
49503;DHT22;35409;48.776;9.204;2023-06-14T06:25:00;17.90;76.70
49503;DHT22;35409;48.776;9.204;2023-06-14T06:27:26;18.00;75.40
49503;DHT22;35409;48.776;9.204;2023-06-14T06:29:51;18.10;75.00
49503;DHT22;35409;48.776;9.204;2023-06-14T06:32:17;18.10;75.80
49503;DHT22;35409;48.776;9.204;2023-06-14T06:34:43;18.20;76.50
49503;DHT22;35409;48.776;9.204;2023-06-14T06:37:09;18.40;76.40
49503;DHT22;35409;48.776;9.204;2023-06-14T06:39:34;18.40;76.00
49503;DHT22;35409;48.776;9.204;2023-06-14T06:42:00;18.50;75.20
49503;DHT22;35409;48.776;9.204;2023-06-14T06:44:26;18.50;75.10
49503;DHT22;35409;48.776;9.204;2023-06-14T06:46:52;18.50;75.30
49503;DHT22;35409;48.776;9.204;2023-06-14T06:49:17;18.60;75.20
49503;DHT22;35409;48.776;9.204;2023-06-14T06:51:43;18.70;75.30
49503;DHT22;35409;48.776;9.204;2023-06-14T06:54:10;18.80;74.20
49503;DHT22;35409;48.776;9.204;2023-06-14T06:56:36;18.90;74.70
49503;DHT22;35409;48.776;9.204;2023-06-14T06:59:01;18.90;72.80
49503;DHT22;35409;48.776;9.204;2023-06-14T07:01:27;19.10;73.50
49503;DHT22;35409;48.776;9.204;2023-06-14T07:03:54;19.10;72.50
49503;DHT22;35409;48.776;9.204;2023-06-14T07:06:20;19.20;72.70
49503;DHT22;35409;48.776;9.204;2023-06-14T07:08:46;19.30;73.70
49503;DHT22;35409;48.776;9.204;2023-06-14T07:11:14;19.40;72.80
49503;DHT22;35409;48.776;9.204;2023-06-14T07:13:39;19.50;72.30
49503;DHT22;35409;48.776;9.204;2023-06-14T07:16:05;19.70;72.00
49503;DHT22;35409;48.776;9.204;2023-06-14T07:18:31;19.70;71.40
49503;DHT22;35409;48.776;9.204;2023-06-14T07:20:57;19.70;70.90
49503;DHT22;35409;48.776;9.204;2023-06-14T07:23:23;19.80;71.30
49503;DHT22;35409;48.776;9.204;2023-06-14T07:25:49;19.90;70.30
49503;DHT22;35409;48.776;9.204;2023-06-14T07:28:15;19.90;70.30
49503;DHT22;35409;48.776;9.204;2023-06-14T07:30:41;20.00;70.90
49503;DHT22;35409;48.776;9.204;2023-06-14T07:33:07;20.10;71.20
49503;DHT22;35409;48.776;9.204;2023-06-14T07:35:33;20.20;70.80
49503;DHT22;35409;48.776;9.204;2023-06-14T07:37:59;20.20;71.00
49503;DHT22;35409;48.776;9.204;2023-06-14T07:40:25;20.20;70.80
49503;DHT22;35409;48.776;9.204;2023-06-14T07:42:50;20.20;70.80
49503;DHT22;35409;48.776;9.204;2023-06-14T07:45:16;20.30;69.90
49503;DHT22;35409;48.776;9.204;2023-06-14T07:47:42;20.30;69.70
49503;DHT22;35409;48.776;9.204;2023-06-14T07:50:08;20.30;70.20
49503;DHT22;35409;48.776;9.204;2023-06-14T07:52:34;20.40;71.60
49503;DHT22;35409;48.776;9.204;2023-06-14T07:55:00;20.50;69.30
49503;DHT22;35409;48.776;9.204;2023-06-14T07:57:25;20.60;70.00
49503;DHT22;35409;48.776;9.204;2023-06-14T07:59:51;20.70;70.30
49503;DHT22;35409;48.776;9.204;2023-06-14T08:02:17;20.70;70.00
49503;DHT22;35409;48.776;9.204;2023-06-14T08:04:43;20.70;69.90
49503;DHT22;35409;48.776;9.204;2023-06-14T08:07:08;20.90;70.10
49503;DHT22;35409;48.776;9.204;2023-06-14T08:09:35;21.00;70.50
49503;DHT22;35409;48.776;9.204;2023-06-14T08:12:03;21.10;69.90
49503;DHT22;35409;48.776;9.204;2023-06-14T08:14:29;21.20;69.60
49503;DHT22;35409;48.776;9.204;2023-06-14T08:16:55;21.30;69.70
49503;DHT22;35409;48.776;9.204;2023-06-14T08:19:20;21.40;70.10
49503;DHT22;35409;48.776;9.204;2023-06-14T08:21:46;21.40;69.70
49503;DHT22;35409;48.776;9.204;2023-06-14T08:24:12;21.60;69.80
49503;DHT22;35409;48.776;9.204;2023-06-14T08:26:38;21.80;84.20
49503;DHT22;35409;48.776;9.204;2023-06-14T08:29:04;21.90;85.50
49503;DHT22;35409;48.776;9.204;2023-06-14T08:31:32;21.90;84.20
49503;DHT22;35409;48.776;9.204;2023-06-14T08:33:58;22.00;83.50
49503;DHT22;35409;48.776;9.204;2023-06-14T08:36:24;22.00;84.60
49503;DHT22;35409;48.776;9.204;2023-06-14T08:38:49;22.10;83.20
49503;DHT22;35409;48.776;9.204;2023-06-14T08:41:20;22.20;82.60
49503;DHT22;35409;48.776;9.204;2023-06-14T08:43:47;22.20;82.70
49503;DHT22;35409;48.776;9.204;2023-06-14T08:46:14;22.30;80.80
49503;DHT22;35409;48.776;9.204;2023-06-14T08:48:48;22.40;79.70
49503;DHT22;35409;48.776;9.204;2023-06-14T08:51:18;22.40;68.30
49503;DHT22;35409;48.776;9.204;2023-06-14T08:53:45;22.60;68.90
49503;DHT22;35409;48.776;9.204;2023-06-14T08:56:12;22.70;67.40
49503;DHT22;35409;48.776;9.204;2023-06-14T08:58:47;22.70;67.30
49503;DHT22;35409;48.776;9.204;2023-06-14T09:01:14;22.70;66.80
49503;DHT22;35409;48.776;9.204;2023-06-14T09:03:42;22.80;66.90
49503;DHT22;35409;48.776;9.204;2023-06-14T09:06:08;23.00;77.50
49503;DHT22;35409;48.776;9.204;2023-06-14T09:08:42;23.10;76.50
49503;DHT22;35409;48.776;9.204;2023-06-14T09:11:08;23.20;76.30
49503;DHT22;35409;48.776;9.204;2023-06-14T09:13:34;23.40;74.70
49503;DHT22;35409;48.776;9.204;2023-06-14T09:16:00;23.60;72.40
49503;DHT22;35409;48.776;9.204;2023-06-14T09:18:43;23.60;71.10
49503;DHT22;35409;48.776;9.204;2023-06-14T09:21:10;23.70;71.60
49503;DHT22;35409;48.776;9.204;2023-06-14T09:23:41;23.70;72.70
49503;DHT22;35409;48.776;9.204;2023-06-14T09:26:10;23.80;72.80
49503;DHT22;35409;48.776;9.204;2023-06-14T09:28:40;23.80;73.70
49503;DHT22;35409;48.776;9.204;2023-06-14T09:31:07;23.50;73.40
49503;DHT22;35409;48.776;9.204;2023-06-14T09:33:35;23.30;73.80
49503;DHT22;35409;48.776;9.204;2023-06-14T09:36:00;23.30;74.10
49503;DHT22;35409;48.776;9.204;2023-06-14T09:38:26;23.40;74.80
49503;DHT22;35409;48.776;9.204;2023-06-14T09:40:52;23.70;74.40
49503;DHT22;35409;48.776;9.204;2023-06-14T09:43:18;23.90;73.40
49503;DHT22;35409;48.776;9.204;2023-06-14T09:45:45;24.00;73.50
49503;DHT22;35409;48.776;9.204;2023-06-14T09:48:14;24.00;72.70
49503;DHT22;35409;48.776;9.204;2023-06-14T09:50:45;24.30;75.10
49503;DHT22;35409;48.776;9.204;2023-06-14T09:53:12;24.40;79.90
49503;DHT22;35409;48.776;9.204;2023-06-14T09:55:40;24.60;83.90
49503;DHT22;35409;48.776;9.204;2023-06-14T09:58:07;24.60;85.80
49503;DHT22;35409;48.776;9.204;2023-06-14T10:00:34;24.70;85.30
49503;DHT22;35409;48.776;9.204;2023-06-14T14:27:58;29.10;53.30
49503;DHT22;35409;48.776;9.204;2023-06-14T14:30:24;29.00;53.90
49503;DHT22;35409;48.776;9.204;2023-06-14T14:32:50;29.20;53.70
49503;DHT22;35409;48.776;9.204;2023-06-14T14:35:17;29.20;54.00
49503;DHT22;35409;48.776;9.204;2023-06-14T14:37:43;29.30;53.70
49503;DHT22;35409;48.776;9.204;2023-06-14T14:40:09;29.30;53.40
49503;DHT22;35409;48.776;9.204;2023-06-14T14:42:36;29.70;53.00
49503;DHT22;35409;48.776;9.204;2023-06-14T14:45:02;29.80;52.40
49503;DHT22;35409;48.776;9.204;2023-06-14T14:47:28;30.10;53.30
49503;DHT22;35409;48.776;9.204;2023-06-14T14:49:53;30.50;52.00
49503;DHT22;35409;48.776;9.204;2023-06-14T14:52:19;30.50;51.60
49503;DHT22;35409;48.776;9.204;2023-06-14T15:11:49;32.00;49.40
49503;DHT22;35409;48.776;9.204;2023-06-14T15:14:14;32.00;50.10
49503;DHT22;35409;48.776;9.204;2023-06-14T15:16:40;31.90;51.00
49503;DHT22;35409;48.776;9.204;2023-06-14T15:19:06;31.90;50.50
49503;DHT22;35409;48.776;9.204;2023-06-14T15:21:32;31.50;50.50
49503;DHT22;35409;48.776;9.204;2023-06-14T15:23:57;31.30;51.60
49503;DHT22;35409;48.776;9.204;2023-06-14T15:26:23;31.10;51.70
49503;DHT22;35409;48.776;9.204;2023-06-14T15:28:50;31.20;51.20
49503;DHT22;35409;48.776;9.204;2023-06-14T15:31:15;31.10;50.60
49503;DHT22;35409;48.776;9.204;2023-06-14T15:33:41;30.90;51.00
49503;DHT22;35409;48.776;9.204;2023-06-14T15:36:06;31.20;51.70
49503;DHT22;35409;48.776;9.204;2023-06-14T15:38:35;31.50;51.10
49503;DHT22;35409;48.776;9.204;2023-06-14T15:41:03;31.50;50.50
49503;DHT22;35409;48.776;9.204;2023-06-14T15:43:28;31.10;50.00
49503;DHT22;35409;48.776;9.204;2023-06-14T15:46:05;31.10;51.00
49503;DHT22;35409;48.776;9.204;2023-06-14T15:48:31;31.20;50.90
49503;DHT22;35409;48.776;9.204;2023-06-14T15:51:04;30.90;50.40
49503;DHT22;35409;48.776;9.204;2023-06-14T15:53:32;30.90;51.50
49503;DHT22;35409;48.776;9.204;2023-06-14T15:56:03;30.90;50.70
49503;DHT22;35409;48.776;9.204;2023-06-14T15:58:31;31.00;51.20
49503;DHT22;35409;48.776;9.204;2023-06-14T16:00:56;31.20;50.70
49503;DHT22;35409;48.776;9.204;2023-06-14T16:03:24;31.30;50.10
49503;DHT22;35409;48.776;9.204;2023-06-14T16:05:50;31.30;49.70
49503;DHT22;35409;48.776;9.204;2023-06-14T16:08:21;31.30;49.80
49503;DHT22;35409;48.776;9.204;2023-06-14T16:10:49;31.30;50.00
49503;DHT22;35409;48.776;9.204;2023-06-14T16:13:18;31.30;49.80
49503;DHT22;35409;48.776;9.204;2023-06-14T16:15:44;31.00;49.60
49503;DHT22;35409;48.776;9.204;2023-06-14T16:18:18;30.90;49.90
49503;DHT22;35409;48.776;9.204;2023-06-14T16:20:46;31.00;50.30
49503;DHT22;35409;48.776;9.204;2023-06-14T16:23:22;31.20;50.10
49503;DHT22;35409;48.776;9.204;2023-06-14T16:25:50;31.50;50.20
49503;DHT22;35409;48.776;9.204;2023-06-14T16:28:16;31.70;50.20
49503;DHT22;35409;48.776;9.204;2023-06-14T16:30:41;31.40;49.60
49503;DHT22;35409;48.776;9.204;2023-06-14T16:33:09;30.90;50.10
49503;DHT22;35409;48.776;9.204;2023-06-14T16:35:35;30.50;50.70
49503;DHT22;35409;48.776;9.204;2023-06-14T16:38:03;30.20;50.60
49503;DHT22;35409;48.776;9.204;2023-06-14T16:40:31;29.90;51.30
49503;DHT22;35409;48.776;9.204;2023-06-14T16:43:01;29.90;51.90
49503;DHT22;35409;48.776;9.204;2023-06-14T16:45:26;29.80;51.50
49503;DHT22;35409;48.776;9.204;2023-06-14T16:47:52;29.60;52.00
49503;DHT22;35409;48.776;9.204;2023-06-14T16:50:28;29.60;52.50
49503;DHT22;35409;48.776;9.204;2023-06-14T16:52:56;29.70;52.60
49503;DHT22;35409;48.776;9.204;2023-06-14T16:55:22;29.70;52.20
49503;DHT22;35409;48.776;9.204;2023-06-14T16:57:47;29.70;52.20
49503;DHT22;35409;48.776;9.204;2023-06-14T17:00:24;29.50;52.10
49503;DHT22;35409;48.776;9.204;2023-06-14T17:02:53;29.10;52.90
49503;DHT22;35409;48.776;9.204;2023-06-14T17:05:19;28.70;53.30
49503;DHT22;35409;48.776;9.204;2023-06-14T17:07:47;28.10;53.20
49503;DHT22;35409;48.776;9.204;2023-06-14T17:10:15;27.50;53.90
49503;DHT22;35409;48.776;9.204;2023-06-14T17:12:44;26.90;53.40
49503;DHT22;35409;48.776;9.204;2023-06-14T17:15:10;26.50;53.80
49503;DHT22;35409;48.776;9.204;2023-06-14T17:17:35;26.20;54.80
49503;DHT22;35409;48.776;9.204;2023-06-14T17:20:08;25.90;55.80
49503;DHT22;35409;48.776;9.204;2023-06-14T17:22:43;25.60;56.60
49503;DHT22;35409;48.776;9.204;2023-06-14T17:25:11;25.50;56.70
49503;DHT22;35409;48.776;9.204;2023-06-14T17:27:48;25.40;56.10
49503;DHT22;35409;48.776;9.204;2023-06-14T17:30:16;25.30;57.10
49503;DHT22;35409;48.776;9.204;2023-06-14T17:32:41;25.20;58.00
49503;DHT22;35409;48.776;9.204;2023-06-14T17:35:07;25.00;58.70
49503;DHT22;35409;48.776;9.204;2023-06-14T17:37:33;25.00;58.90
49503;DHT22;35409;48.776;9.204;2023-06-14T17:40:06;24.90;58.00
49503;DHT22;35409;48.776;9.204;2023-06-14T17:42:32;24.80;58.30
49503;DHT22;35409;48.776;9.204;2023-06-14T17:44:58;24.70;58.40
49503;DHT22;35409;48.776;9.204;2023-06-14T17:47:24;24.60;58.40
49503;DHT22;35409;48.776;9.204;2023-06-14T17:49:50;24.60;58.60
49503;DHT22;35409;48.776;9.204;2023-06-14T17:52:23;24.50;58.80
49503;DHT22;35409;48.776;9.204;2023-06-14T17:54:49;24.40;58.70
49503;DHT22;35409;48.776;9.204;2023-06-14T17:57:15;24.40;59.20
49503;DHT22;35409;48.776;9.204;2023-06-14T17:59:41;24.40;59.00
49503;DHT22;35409;48.776;9.204;2023-06-14T18:02:07;24.40;59.20
49503;DHT22;35409;48.776;9.204;2023-06-14T18:04:38;24.40;59.10
49503;DHT22;35409;48.776;9.204;2023-06-14T18:07:04;24.30;59.10
49503;DHT22;35409;48.776;9.204;2023-06-14T18:09:30;24.30;59.10
49503;DHT22;35409;48.776;9.204;2023-06-14T18:11:56;24.20;60.40
49503;DHT22;35409;48.776;9.204;2023-06-14T18:14:22;24.00;60.20
49503;DHT22;35409;48.776;9.204;2023-06-14T18:16:51;23.90;60.80
49503;DHT22;35409;48.776;9.204;2023-06-14T19:08:11;22.40;64.20
49503;DHT22;35409;48.776;9.204;2023-06-14T19:10:38;22.30;65.00
49503;DHT22;35409;48.776;9.204;2023-06-14T19:13:04;22.10;65.00
49503;DHT22;35409;48.776;9.204;2023-06-14T19:15:32;22.00;65.30
49503;DHT22;35409;48.776;9.204;2023-06-14T19:17:59;22.00;65.60
49503;DHT22;35409;48.776;9.204;2023-06-14T19:20:26;21.90;65.80
49503;DHT22;35409;48.776;9.204;2023-06-14T19:22:52;21.80;66.00
49503;DHT22;35409;48.776;9.204;2023-06-14T19:25:18;21.70;66.30
49503;DHT22;35409;48.776;9.204;2023-06-14T19:27:46;21.60;66.50
49503;DHT22;35409;48.776;9.204;2023-06-14T19:30:11;21.50;66.90
49503;DHT22;35409;48.776;9.204;2023-06-14T19:32:38;21.30;67.20
49503;DHT22;35409;48.776;9.204;2023-06-14T19:35:05;21.20;67.70
49503;DHT22;35409;48.776;9.204;2023-06-14T19:49:41;20.70;68.90
49503;DHT22;35409;48.776;9.204;2023-06-14T19:52:07;20.60;69.70
49503;DHT22;35409;48.776;9.204;2023-06-14T19:54:34;20.50;70.00
49503;DHT22;35409;48.776;9.204;2023-06-14T19:57:01;20.40;70.40
49503;DHT22;35409;48.776;9.204;2023-06-14T19:59:26;20.20;70.60
49503;DHT22;35409;48.776;9.204;2023-06-14T20:01:52;20.10;70.90
49503;DHT22;35409;48.776;9.204;2023-06-14T20:04:17;20.00;71.20
49503;DHT22;35409;48.776;9.204;2023-06-14T20:06:43;19.90;71.50
49503;DHT22;35409;48.776;9.204;2023-06-14T20:09:09;19.70;71.70
49503;DHT22;35409;48.776;9.204;2023-06-14T20:11:39;19.70;72.10
49503;DHT22;35409;48.776;9.204;2023-06-14T20:14:05;19.50;72.30
49503;DHT22;35409;48.776;9.204;2023-06-14T20:16:32;19.40;72.70
49503;DHT22;35409;48.776;9.204;2023-06-14T20:18:58;19.40;73.50
49503;DHT22;35409;48.776;9.204;2023-06-14T20:21:27;19.30;73.30
49503;DHT22;35409;48.776;9.204;2023-06-14T20:23:53;19.20;73.30
49503;DHT22;35409;48.776;9.204;2023-06-14T20:26:19;19.10;73.50
49503;DHT22;35409;48.776;9.204;2023-06-14T20:28:44;19.00;73.80
49503;DHT22;35409;48.776;9.204;2023-06-14T20:31:10;18.90;74.10
49503;DHT22;35409;48.776;9.204;2023-06-14T20:33:38;18.90;74.50
49503;DHT22;35409;48.776;9.204;2023-06-14T20:36:04;18.80;74.70
49503;DHT22;35409;48.776;9.204;2023-06-14T20:38:29;18.70;74.90
49503;DHT22;35409;48.776;9.204;2023-06-14T20:40:55;18.70;75.20
49503;DHT22;35409;48.776;9.204;2023-06-14T20:43:23;18.60;75.40
49503;DHT22;35409;48.776;9.204;2023-06-14T20:45:49;18.50;75.60
49503;DHT22;35409;48.776;9.204;2023-06-14T20:48:15;18.50;75.80
49503;DHT22;35409;48.776;9.204;2023-06-14T20:50:41;18.40;75.90
49503;DHT22;35409;48.776;9.204;2023-06-14T20:53:06;18.40;76.50
49503;DHT22;35409;48.776;9.204;2023-06-14T20:55:32;18.40;76.30
49503;DHT22;35409;48.776;9.204;2023-06-14T20:57:58;18.40;76.40
49503;DHT22;35409;48.776;9.204;2023-06-14T21:00:24;18.30;76.60
49503;DHT22;35409;48.776;9.204;2023-06-14T21:02:50;18.20;76.60
49503;DHT22;35409;48.776;9.204;2023-06-14T21:05:16;18.20;77.10
49503;DHT22;35409;48.776;9.204;2023-06-14T21:07:42;18.10;77.00
49503;DHT22;35409;48.776;9.204;2023-06-14T21:10:08;18.10;77.70
49503;DHT22;35409;48.776;9.204;2023-06-14T21:12:34;18.10;77.30
49503;DHT22;35409;48.776;9.204;2023-06-14T21:15:00;18.10;80.10
49503;DHT22;35409;48.776;9.204;2023-06-14T21:19:57;18.00;99.60
49503;DHT22;35409;48.776;9.204;2023-06-14T21:24:50;17.70;99.90
49503;DHT22;35409;48.776;9.204;2023-06-14T21:27:16;17.90;99.00
